KAL107 RKSI-ZSHC
Flight info
| Callsign | KAL107 |
|---|---|
| Flight time | N/A |
| Altitude | 34000 |
| Route | BOPTA3H BOPTA Z51 BEDES Y711 PONIK A593 LAMEN/K0872F340 A593 AKARA/K0872S1040 A593 DUMET W114 LASAN G327 NINAS B221 SUPAR W505 DSH |
| Aircraft | B77W/H-SDE1E2E3FGHIJ2J3J4J5M1RWXY/LB1D1 |
Departure
| Time | 2026-05-06 01:37 |
|---|---|
| Airport | Incheon International Airport (RKSI) |
Arrival
| Time | N/A |
|---|---|
| Airport | Hangzhou Xiaoshan International Airport (ZSHC) |
| Time | Latitude | Longitude | Altitude | Speed | Heading |
|---|---|---|---|---|---|
| 2026-05-06 01:04 | 37.46247 | 126.43236 | 35 ft | 0 kts | 68° |
| 2026-05-06 01:26 | 37.46245 | 126.43230 | 35 ft | 2 kts | 69° |
| 2026-05-06 01:26 | 37.46240 | 126.43212 | 35 ft | 2 kts | 68° |
| 2026-05-06 01:27 | 37.46234 | 126.43195 | 35 ft | 2 kts | 68° |
| 2026-05-06 01:27 | 37.46228 | 126.43177 | 35 ft | 2 kts | 68° |
| 2026-05-06 01:27 | 37.46223 | 126.43160 | 35 ft | 2 kts | 55° |
| 2026-05-06 01:27 | 37.46212 | 126.43147 | 35 ft | 2 kts | 31° |
| 2026-05-06 01:28 | 37.46199 | 126.43139 | 35 ft | 2 kts | 12° |
| 2026-05-06 01:28 | 37.46184 | 126.43137 | 35 ft | 2 kts | 352° |
| 2026-05-06 01:28 | 37.46169 | 126.43143 | 35 ft | 2 kts | 332° |
| 2026-05-06 01:28 | 37.46157 | 126.43153 | 35 ft | 2 kts | 321° |
| 2026-05-06 01:29 | 37.46145 | 126.43165 | 35 ft | 2 kts | 323° |
| 2026-05-06 01:29 | 37.46133 | 126.43175 | 35 ft | 2 kts | 325° |
| 2026-05-06 01:29 | 37.46128 | 126.43180 | 35 ft | 0 kts | 325° |
| 2026-05-06 01:31 | 37.46139 | 126.43171 | 35 ft | 3 kts | 325° |
| 2026-05-06 01:31 | 37.46175 | 126.43142 | 35 ft | 8 kts | 331° |
| 2026-05-06 01:31 | 37.46238 | 126.43104 | 35 ft | 11 kts | 335° |
| 2026-05-06 01:32 | 37.46308 | 126.43064 | 35 ft | 8 kts | 335° |
| 2026-05-06 01:32 | 37.46359 | 126.43015 | 35 ft | 9 kts | 285° |
| 2026-05-06 01:32 | 37.46329 | 126.42938 | 35 ft | 11 kts | 233° |
| 2026-05-06 01:32 | 37.46280 | 126.42854 | 35 ft | 12 kts | 233° |
| 2026-05-06 01:33 | 37.46248 | 126.42770 | 35 ft | 10 kts | 270° |
| 2026-05-06 01:33 | 37.46293 | 126.42694 | 35 ft | 12 kts | 324° |
| 2026-05-06 01:33 | 37.46368 | 126.42628 | 35 ft | 14 kts | 324° |
| 2026-05-06 01:33 | 37.46460 | 126.42545 | 35 ft | 17 kts | 324° |
| 2026-05-06 01:34 | 37.46567 | 126.42450 | 35 ft | 20 kts | 324° |
| 2026-05-06 01:34 | 37.46691 | 126.42340 | 35 ft | 22 kts | 324° |
| 2026-05-06 01:34 | 37.46826 | 126.42219 | 35 ft | 24 kts | 324° |
| 2026-05-06 01:34 | 37.46923 | 126.42133 | 35 ft | 26 kts | 324° |
| 2026-05-06 01:35 | 37.47128 | 126.41950 | 35 ft | 26 kts | 324° |
| 2026-05-06 01:35 | 37.47275 | 126.41819 | 35 ft | 22 kts | 324° |
| 2026-05-06 01:35 | 37.47339 | 126.41763 | 35 ft | 9 kts | 322° |
| 2026-05-06 01:35 | 37.47344 | 126.41698 | 35 ft | 8 kts | 242° |
| 2026-05-06 01:36 | 37.47312 | 126.41637 | 35 ft | 8 kts | 235° |
| 2026-05-06 01:36 | 37.47274 | 126.41585 | 35 ft | 7 kts | 211° |
| 2026-05-06 01:36 | 37.47229 | 126.41596 | 35 ft | 7 kts | 148° |
| 2026-05-06 01:36 | 37.47174 | 126.41643 | 35 ft | 19 kts | 144° |
| 2026-05-06 01:37 | 37.46855 | 126.41927 | 35 ft | 91 kts | 144° |
| 2026-05-06 01:37 | 37.46158 | 126.42550 | 37 ft | 153 kts | 144° |
| 2026-05-06 01:37 | 37.45538 | 126.43102 | 327 ft | 163 kts | 146° |
| 2026-05-06 01:37 | 37.44217 | 126.44173 | 1112 ft | 182 kts | 150° |
| 2026-05-06 01:38 | 37.43087 | 126.45025 | 1599 ft | 195 kts | 152° |
| 2026-05-06 01:38 | 37.41874 | 126.45937 | 2024 ft | 213 kts | 152° |
| 2026-05-06 01:38 | 37.40540 | 126.46944 | 2456 ft | 233 kts | 152° |
| 2026-05-06 01:38 | 37.39075 | 126.48046 | 2925 ft | 251 kts | 154° |
| 2026-05-06 01:39 | 37.37423 | 126.48843 | 3555 ft | 258 kts | 167° |
| 2026-05-06 01:39 | 37.35683 | 126.49433 | 4381 ft | 260 kts | 168° |
| 2026-05-06 01:39 | 37.33926 | 126.50016 | 5044 ft | 268 kts | 168° |
| 2026-05-06 01:39 | 37.32106 | 126.50629 | 5750 ft | 275 kts | 168° |
| 2026-05-06 01:40 | 37.30246 | 126.51257 | 6469 ft | 280 kts | 167° |
| 2026-05-06 01:40 | 37.28349 | 126.51923 | 7190 ft | 284 kts | 162° |
| 2026-05-06 01:40 | 37.26553 | 126.52961 | 8039 ft | 285 kts | 153° |
| 2026-05-06 01:40 | 37.24790 | 126.54150 | 8788 ft | 288 kts | 153° |
| 2026-05-06 01:41 | 37.23005 | 126.55363 | 9510 ft | 290 kts | 152° |
| 2026-05-06 01:41 | 37.21238 | 126.56564 | 10213 ft | 293 kts | 152° |
| 2026-05-06 01:41 | 37.19394 | 126.57816 | 10608 ft | 309 kts | 152° |
| 2026-05-06 01:41 | 37.17433 | 126.59147 | 11000 ft | 325 kts | 152° |
| 2026-05-06 01:42 | 37.15387 | 126.60535 | 11419 ft | 341 kts | 152° |
| 2026-05-06 01:42 | 37.13565 | 126.61598 | 11745 ft | 353 kts | 160° |
| 2026-05-06 01:42 | 37.11120 | 126.62373 | 12192 ft | 368 kts | 172° |
| 2026-05-06 01:42 | 37.08534 | 126.62524 | 12782 ft | 377 kts | 180° |
| 2026-05-06 01:43 | 37.05895 | 126.62489 | 13044 ft | 381 kts | 181° |
| 2026-05-06 01:43 | 37.03248 | 126.62444 | 13063 ft | 380 kts | 181° |
| 2026-05-06 01:43 | 37.00586 | 126.62403 | 13065 ft | 380 kts | 180° |
| 2026-05-06 01:43 | 36.97926 | 126.62365 | 13085 ft | 381 kts | 180° |
| 2026-05-06 01:44 | 36.95194 | 126.62384 | 13563 ft | 395 kts | 179° |
| 2026-05-06 01:44 | 36.92471 | 126.62420 | 14734 ft | 391 kts | 180° |
| 2026-05-06 01:44 | 36.89753 | 126.62454 | 15844 ft | 392 kts | 180° |
| 2026-05-06 01:44 | 36.86989 | 126.62456 | 16646 ft | 400 kts | 183° |
| 2026-05-06 01:45 | 36.84151 | 126.62290 | 17428 ft | 408 kts | 184° |
| 2026-05-06 01:45 | 36.81290 | 126.62109 | 18294 ft | 415 kts | 184° |
| 2026-05-06 01:45 | 36.78390 | 126.61931 | 19183 ft | 420 kts | 184° |
| 2026-05-06 01:45 | 36.75469 | 126.61777 | 19971 ft | 427 kts | 181° |
| 2026-05-06 01:46 | 36.72448 | 126.62087 | 20746 ft | 436 kts | 172° |
| 2026-05-06 01:46 | 36.69471 | 126.62955 | 21470 ft | 445 kts | 166° |
| 2026-05-06 01:46 | 36.66471 | 126.63965 | 22296 ft | 449 kts | 166° |
| 2026-05-06 01:46 | 36.63411 | 126.64999 | 23090 ft | 453 kts | 166° |
| 2026-05-06 01:47 | 36.60352 | 126.66030 | 23746 ft | 461 kts | 167° |
| 2026-05-06 01:47 | 36.57186 | 126.67096 | 24404 ft | 467 kts | 167° |
| 2026-05-06 01:47 | 36.54023 | 126.68158 | 25090 ft | 473 kts | 167° |
| 2026-05-06 01:47 | 36.50825 | 126.69230 | 25747 ft | 479 kts | 167° |
| 2026-05-06 01:48 | 36.47593 | 126.70312 | 26385 ft | 484 kts | 167° |
| 2026-05-06 01:48 | 36.44301 | 126.71413 | 27014 ft | 490 kts | 167° |
| 2026-05-06 01:48 | 36.40987 | 126.72520 | 27584 ft | 497 kts | 167° |
| 2026-05-06 01:48 | 36.37587 | 126.73656 | 28287 ft | 501 kts | 166° |
| 2026-05-06 01:49 | 36.34244 | 126.74783 | 28957 ft | 504 kts | 166° |
| 2026-05-06 01:49 | 36.30778 | 126.75954 | 29562 ft | 509 kts | 166° |
| 2026-05-06 01:49 | 36.27370 | 126.77105 | 30258 ft | 511 kts | 166° |
| 2026-05-06 01:49 | 36.23937 | 126.78262 | 30984 ft | 511 kts | 166° |
| 2026-05-06 01:50 | 36.20489 | 126.79424 | 31631 ft | 512 kts | 166° |
| 2026-05-06 01:50 | 36.17010 | 126.80444 | 32158 ft | 513 kts | 173° |
| 2026-05-06 01:50 | 36.13453 | 126.80853 | 32654 ft | 512 kts | 182° |
| 2026-05-06 01:50 | 36.09904 | 126.80665 | 33140 ft | 511 kts | 188° |
| 2026-05-06 01:51 | 36.06305 | 126.80285 | 33634 ft | 513 kts | 188° |
| 2026-05-06 01:51 | 36.02749 | 126.79895 | 34020 ft | 515 kts | 188° |
| 2026-05-06 01:51 | 35.95538 | 126.79107 | 34086 ft | 513 kts | 188° |
| 2026-05-06 01:52 | 35.88417 | 126.78333 | 34081 ft | 512 kts | 189° |
| 2026-05-06 01:52 | 35.81235 | 126.77552 | 34072 ft | 513 kts | 188° |
| 2026-05-06 01:53 | 35.74109 | 126.76780 | 34082 ft | 514 kts | 188° |
| 2026-05-06 01:53 | 35.66922 | 126.76003 | 34070 ft | 514 kts | 188° |
| 2026-05-06 01:54 | 35.59753 | 126.75230 | 34076 ft | 515 kts | 188° |
| 2026-05-06 01:54 | 35.52537 | 126.74454 | 34076 ft | 516 kts | 188° |
| 2026-05-06 01:55 | 35.45354 | 126.73683 | 34074 ft | 516 kts | 188° |
| 2026-05-06 01:55 | 35.38185 | 126.72916 | 34075 ft | 514 kts | 188° |
| 2026-05-06 01:56 | 35.30986 | 126.72147 | 34074 ft | 517 kts | 188° |
| 2026-05-06 01:56 | 35.23794 | 126.71380 | 34090 ft | 517 kts | 188° |
| 2026-05-06 01:57 | 35.16601 | 126.70615 | 34083 ft | 514 kts | 188° |
| 2026-05-06 01:57 | 35.09384 | 126.69848 | 34089 ft | 517 kts | 188° |
| 2026-05-06 01:58 | 35.02187 | 126.69083 | 34098 ft | 516 kts | 188° |
| 2026-05-06 01:58 | 34.94979 | 126.68319 | 34092 ft | 518 kts | 188° |
| 2026-05-06 01:59 | 34.87767 | 126.67557 | 34087 ft | 518 kts | 188° |
| 2026-05-06 01:59 | 34.80542 | 126.66793 | 34078 ft | 519 kts | 188° |
| 2026-05-06 02:00 | 34.73324 | 126.66032 | 34080 ft | 516 kts | 188° |
| 2026-05-06 02:00 | 34.66147 | 126.65277 | 34086 ft | 517 kts | 188° |
| 2026-05-06 02:01 | 34.58915 | 126.64517 | 34087 ft | 518 kts | 188° |
| 2026-05-06 02:01 | 34.51677 | 126.63758 | 34080 ft | 517 kts | 187° |
| 2026-05-06 02:02 | 34.44487 | 126.63006 | 34085 ft | 515 kts | 187° |
| 2026-05-06 02:02 | 34.37333 | 126.62258 | 34088 ft | 518 kts | 187° |
| 2026-05-06 02:03 | 34.30101 | 126.61504 | 34087 ft | 515 kts | 187° |
| 2026-05-06 02:03 | 34.22962 | 126.60761 | 34089 ft | 514 kts | 187° |
| 2026-05-06 02:04 | 34.15756 | 126.60009 | 34099 ft | 515 kts | 187° |
| 2026-05-06 02:04 | 34.08572 | 126.59261 | 34097 ft | 515 kts | 187° |
| 2026-05-06 02:05 | 34.01432 | 126.58518 | 34099 ft | 517 kts | 187° |
| 2026-05-06 02:05 | 33.94243 | 126.57773 | 34103 ft | 514 kts | 187° |
| 2026-05-06 02:06 | 33.87098 | 126.57027 | 34083 ft | 514 kts | 188° |
| 2026-05-06 02:06 | 33.80216 | 126.55010 | 34102 ft | 504 kts | 203° |
| 2026-05-06 02:07 | 33.73590 | 126.52152 | 34093 ft | 504 kts | 204° |
| 2026-05-06 02:07 | 33.67001 | 126.49299 | 34098 ft | 499 kts | 204° |
| 2026-05-06 02:08 | 33.60368 | 126.46429 | 34100 ft | 500 kts | 204° |
| 2026-05-06 02:08 | 33.53795 | 126.43591 | 34102 ft | 497 kts | 204° |
| 2026-05-06 02:09 | 33.47245 | 126.40765 | 34102 ft | 499 kts | 204° |
| 2026-05-06 02:09 | 33.40649 | 126.37925 | 34102 ft | 499 kts | 204° |
| 2026-05-06 02:10 | 33.34110 | 126.35116 | 34101 ft | 496 kts | 204° |
| 2026-05-06 02:10 | 33.27601 | 126.32323 | 34103 ft | 497 kts | 204° |
| 2026-05-06 02:11 | 33.21070 | 126.29525 | 34106 ft | 496 kts | 203° |
| 2026-05-06 02:11 | 33.14534 | 126.26729 | 34103 ft | 496 kts | 203° |
| 2026-05-06 02:12 | 33.07999 | 126.23937 | 34103 ft | 501 kts | 203° |
| 2026-05-06 02:12 | 33.01381 | 126.21115 | 34101 ft | 502 kts | 203° |
| 2026-05-06 02:13 | 32.94840 | 126.18315 | 34101 ft | 494 kts | 204° |
| 2026-05-06 02:13 | 32.88263 | 126.15488 | 34087 ft | 501 kts | 203° |
| 2026-05-06 02:14 | 32.81659 | 126.12659 | 34091 ft | 499 kts | 203° |
| 2026-05-06 02:14 | 32.75137 | 126.09869 | 34085 ft | 498 kts | 203° |
| 2026-05-06 02:15 | 32.68581 | 126.07069 | 34083 ft | 495 kts | 203° |